sensor_id;sensor_type;location;lat;lon;timestamp;temperature;humidity
75387;DHT22;63966;47.914;22.266;2023-07-16T00:01:39;17.85;86.46
75387;DHT22;63966;47.914;22.266;2023-07-16T00:04:51;17.83;87.53
75387;DHT22;63966;47.914;22.266;2023-07-16T00:08:25;17.86;87.73
75387;DHT22;63966;47.914;22.266;2023-07-16T00:11:29;17.94;87.40
75387;DHT22;63966;47.914;22.266;2023-07-16T00:14:32;18.09;85.61
75387;DHT22;63966;47.914;22.266;2023-07-16T00:17:36;18.23;84.47
75387;DHT22;63966;47.914;22.266;2023-07-16T00:20:39;18.30;85.23
75387;DHT22;63966;47.914;22.266;2023-07-16T00:23:43;18.28;84.22
75387;DHT22;63966;47.914;22.266;2023-07-16T00:26:46;18.41;83.37
75387;DHT22;63966;47.914;22.266;2023-07-16T00:29:50;18.48;83.14
75387;DHT22;63966;47.914;22.266;2023-07-16T00:32:55;18.54;82.72
75387;DHT22;63966;47.914;22.266;2023-07-16T00:35:58;18.48;82.88
75387;DHT22;63966;47.914;22.266;2023-07-16T00:39:02;18.37;83.17
75387;DHT22;63966;47.914;22.266;2023-07-16T00:42:09;18.33;83.02
75387;DHT22;63966;47.914;22.266;2023-07-16T00:45:13;18.14;84.28
75387;DHT22;63966;47.914;22.266;2023-07-16T00:48:19;17.94;84.52
75387;DHT22;63966;47.914;22.266;2023-07-16T00:51:24;17.94;84.68
75387;DHT22;63966;47.914;22.266;2023-07-16T00:54:30;17.89;84.94
75387;DHT22;63966;47.914;22.266;2023-07-16T00:57:34;17.79;85.59
75387;DHT22;63966;47.914;22.266;2023-07-16T01:00:39;17.79;85.65
75387;DHT22;63966;47.914;22.266;2023-07-16T01:03:49;17.78;85.64
75387;DHT22;63966;47.914;22.266;2023-07-16T01:06:55;17.46;86.04
75387;DHT22;63966;47.914;22.266;2023-07-16T01:10:01;17.30;87.19
75387;DHT22;63966;47.914;22.266;2023-07-16T01:13:05;17.20;86.91
75387;DHT22;63966;47.914;22.266;2023-07-16T01:16:29;17.13;87.66
75387;DHT22;63966;47.914;22.266;2023-07-16T01:19:34;17.13;87.71
75387;DHT22;63966;47.914;22.266;2023-07-16T01:29:28;16.91;87.80
75387;DHT22;63966;47.914;22.266;2023-07-16T01:32:34;16.84;88.92
75387;DHT22;63966;47.914;22.266;2023-07-16T01:35:41;16.87;88.70
75387;DHT22;63966;47.914;22.266;2023-07-16T01:38:45;16.91;89.25
75387;DHT22;63966;47.914;22.266;2023-07-16T01:41:49;17.02;88.98
75387;DHT22;63966;47.914;22.266;2023-07-16T01:44:54;17.02;88.85
75387;DHT22;63966;47.914;22.266;2023-07-16T01:48:36;17.07;88.61
75387;DHT22;63966;47.914;22.266;2023-07-16T01:51:38;17.17;88.02
75387;DHT22;63966;47.914;22.266;2023-07-16T01:54:42;17.20;87.73
75387;DHT22;63966;47.914;22.266;2023-07-16T01:57:45;17.17;87.75
75387;DHT22;63966;47.914;22.266;2023-07-16T02:00:50;17.08;87.94
75387;DHT22;63966;47.914;22.266;2023-07-16T02:03:57;16.91;88.37
75387;DHT22;63966;47.914;22.266;2023-07-16T02:07:02;16.97;88.38
75387;DHT22;63966;47.914;22.266;2023-07-16T02:10:06;17.07;87.91
75387;DHT22;63966;47.914;22.266;2023-07-16T02:13:09;17.10;87.61
75387;DHT22;63966;47.914;22.266;2023-07-16T02:16:13;17.13;87.42
75387;DHT22;63966;47.914;22.266;2023-07-16T02:19:17;17.10;87.44
75387;DHT22;63966;47.914;22.266;2023-07-16T02:22:21;17.10;87.45
75387;DHT22;63966;47.914;22.266;2023-07-16T02:25:25;17.02;87.78
75387;DHT22;63966;47.914;22.266;2023-07-16T02:28:29;16.94;88.02
75387;DHT22;63966;47.914;22.266;2023-07-16T02:31:32;16.86;88.36
75387;DHT22;63966;47.914;22.266;2023-07-16T02:34:37;16.80;88.51
75387;DHT22;63966;47.914;22.266;2023-07-16T02:37:41;16.73;88.79
75387;DHT22;63966;47.914;22.266;2023-07-16T02:40:45;16.69;88.97
75387;DHT22;63966;47.914;22.266;2023-07-16T02:44:00;16.72;89.14
75387;DHT22;63966;47.914;22.266;2023-07-16T02:47:04;16.66;89.34
75387;DHT22;63966;47.914;22.266;2023-07-16T02:50:08;16.69;89.55
75387;DHT22;63966;47.914;22.266;2023-07-16T02:53:11;16.72;89.47
75387;DHT22;63966;47.914;22.266;2023-07-16T02:56:15;16.73;89.41
75387;DHT22;63966;47.914;22.266;2023-07-16T02:59:20;16.69;89.44
75387;DHT22;63966;47.914;22.266;2023-07-16T03:02:23;16.70;89.37
75387;DHT22;63966;47.914;22.266;2023-07-16T03:05:28;16.75;89.37
75387;DHT22;63966;47.914;22.266;2023-07-16T03:08:34;16.79;89.29
75387;DHT22;63966;47.914;22.266;2023-07-16T03:11:38;16.87;88.91
75387;DHT22;63966;47.914;22.266;2023-07-16T03:14:42;17.00;88.32
75387;DHT22;63966;47.914;22.266;2023-07-16T03:17:47;17.08;87.84
75387;DHT22;63966;47.914;22.266;2023-07-16T03:20:50;17.25;87.15
75387;DHT22;63966;47.914;22.266;2023-07-16T03:23:54;17.63;85.81
75387;DHT22;63966;47.914;22.266;2023-07-16T03:26:58;18.04;84.21
75387;DHT22;63966;47.914;22.266;2023-07-16T03:30:20;18.47;82.89
75387;DHT22;63966;47.914;22.266;2023-07-16T03:33:24;19.46;79.08
75387;DHT22;63966;47.914;22.266;2023-07-16T03:36:27;20.41;75.75
75387;DHT22;63966;47.914;22.266;2023-07-16T03:39:31;21.07;72.86
75387;DHT22;63966;47.914;22.266;2023-07-16T03:42:37;21.86;70.26
75387;DHT22;63966;47.914;22.266;2023-07-16T03:45:42;22.37;68.52
75387;DHT22;63966;47.914;22.266;2023-07-16T03:48:47;22.66;66.77
75387;DHT22;63966;47.914;22.266;2023-07-16T03:51:50;23.06;65.83
75387;DHT22;63966;47.914;22.266;2023-07-16T03:54:54;23.43;65.16
75387;DHT22;63966;47.914;22.266;2023-07-16T03:57:58;23.74;63.44
75387;DHT22;63966;47.914;22.266;2023-07-16T04:01:02;24.08;62.33
75387;DHT22;63966;47.914;22.266;2023-07-16T04:04:06;24.40;60.96
75387;DHT22;63966;47.914;22.266;2023-07-16T04:07:09;24.70;60.42
75387;DHT22;63966;47.914;22.266;2023-07-16T04:10:13;24.99;59.26
75387;DHT22;63966;47.914;22.266;2023-07-16T04:13:17;25.42;58.19
75387;DHT22;63966;47.914;22.266;2023-07-16T04:16:20;25.63;57.33
75387;DHT22;63966;47.914;22.266;2023-07-16T04:19:24;25.81;56.41
75387;DHT22;63966;47.914;22.266;2023-07-16T04:22:27;25.80;56.71
75387;DHT22;63966;47.914;22.266;2023-07-16T04:25:31;26.21;56.71
75387;DHT22;63966;47.914;22.266;2023-07-16T04:28:34;26.17;55.79
75387;DHT22;63966;47.914;22.266;2023-07-16T04:31:38;26.35;55.60
75387;DHT22;63966;47.914;22.266;2023-07-16T04:34:41;26.94;53.36
75387;DHT22;63966;47.914;22.266;2023-07-16T04:37:44;27.33;52.19
75387;DHT22;63966;47.914;22.266;2023-07-16T04:40:48;27.65;51.12
75387;DHT22;63966;47.914;22.266;2023-07-16T04:43:54;27.78;51.73
75387;DHT22;63966;47.914;22.266;2023-07-16T04:46:57;27.96;50.97
75387;DHT22;63966;47.914;22.266;2023-07-16T04:50:01;28.04;52.04
75387;DHT22;63966;47.914;22.266;2023-07-16T04:53:05;28.27;49.89
75387;DHT22;63966;47.914;22.266;2023-07-16T04:56:13;28.02;51.31
75387;DHT22;63966;47.914;22.266;2023-07-16T04:59:18;27.86;51.15
75387;DHT22;63966;47.914;22.266;2023-07-16T05:02:21;28.28;50.14
75387;DHT22;63966;47.914;22.266;2023-07-16T05:05:24;28.52;50.48
75387;DHT22;63966;47.914;22.266;2023-07-16T05:08:31;29.19;48.01
75387;DHT22;63966;47.914;22.266;2023-07-16T05:11:35;28.76;49.13
75387;DHT22;63966;47.914;22.266;2023-07-16T05:14:48;28.92;49.10
75387;DHT22;63966;47.914;22.266;2023-07-16T05:17:52;29.49;48.23
75387;DHT22;63966;47.914;22.266;2023-07-16T05:20:55;29.22;48.25
75387;DHT22;63966;47.914;22.266;2023-07-16T05:23:59;29.43;47.58
75387;DHT22;63966;47.914;22.266;2023-07-16T05:27:03;30.12;46.37
75387;DHT22;63966;47.914;22.266;2023-07-16T05:30:07;30.35;46.15
75387;DHT22;63966;47.914;22.266;2023-07-16T05:33:11;30.77;46.19
75387;DHT22;63966;47.914;22.266;2023-07-16T05:36:15;30.52;45.56
75387;DHT22;63966;47.914;22.266;2023-07-16T05:39:24;30.97;44.52
75387;DHT22;63966;47.914;22.266;2023-07-16T05:42:28;30.79;45.46
75387;DHT22;63966;47.914;22.266;2023-07-16T05:45:31;31.08;44.21
75387;DHT22;63966;47.914;22.266;2023-07-16T05:48:35;31.08;44.22
75387;DHT22;63966;47.914;22.266;2023-07-16T05:51:38;30.86;45.66
75387;DHT22;63966;47.914;22.266;2023-07-16T05:54:44;31.07;44.88
75387;DHT22;63966;47.914;22.266;2023-07-16T05:57:51;31.31;45.37
75387;DHT22;63966;47.914;22.266;2023-07-16T06:01:00;31.45;45.07
75387;DHT22;63966;47.914;22.266;2023-07-16T06:04:04;32.13;44.12
75387;DHT22;63966;47.914;22.266;2023-07-16T06:07:07;31.85;44.52
75387;DHT22;63966;47.914;22.266;2023-07-16T06:10:11;31.76;44.44
75387;DHT22;63966;47.914;22.266;2023-07-16T06:13:14;31.83;43.96
75387;DHT22;63966;47.914;22.266;2023-07-16T06:16:18;32.51;43.30
75387;DHT22;63966;47.914;22.266;2023-07-16T06:19:22;32.78;43.46
75387;DHT22;63966;47.914;22.266;2023-07-16T06:22:26;33.61;42.24
75387;DHT22;63966;47.914;22.266;2023-07-16T06:25:29;34.05;40.38
75387;DHT22;63966;47.914;22.266;2023-07-16T06:28:33;33.05;43.14
75387;DHT22;63966;47.914;22.266;2023-07-16T06:31:53;33.06;43.60
75387;DHT22;63966;47.914;22.266;2023-07-16T06:34:57;33.39;42.79
75387;DHT22;63966;47.914;22.266;2023-07-16T06:38:00;33.81;43.20
75387;DHT22;63966;47.914;22.266;2023-07-16T06:41:04;34.16;40.26
75387;DHT22;63966;47.914;22.266;2023-07-16T06:44:08;34.31;40.49
75387;DHT22;63966;47.914;22.266;2023-07-16T06:47:11;34.61;40.32
75387;DHT22;63966;47.914;22.266;2023-07-16T06:50:15;34.48;40.89
75387;DHT22;63966;47.914;22.266;2023-07-16T06:53:19;35.04;39.87
75387;DHT22;63966;47.914;22.266;2023-07-16T06:56:22;35.14;40.56
75387;DHT22;63966;47.914;22.266;2023-07-16T06:59:26;34.79;40.54
75387;DHT22;63966;47.914;22.266;2023-07-16T07:02:29;35.17;40.18
75387;DHT22;63966;47.914;22.266;2023-07-16T07:05:33;35.44;39.44
75387;DHT22;63966;47.914;22.266;2023-07-16T07:08:39;35.06;40.66
75387;DHT22;63966;47.914;22.266;2023-07-16T07:11:42;34.56;41.19
75387;DHT22;63966;47.914;22.266;2023-07-16T07:14:47;34.76;41.53
75387;DHT22;63966;47.914;22.266;2023-07-16T07:17:51;35.48;40.55
75387;DHT22;63966;47.914;22.266;2023-07-16T07:20:55;36.00;39.70
75387;DHT22;63966;47.914;22.266;2023-07-16T07:23:58;35.82;40.66
75387;DHT22;63966;47.914;22.266;2023-07-16T07:27:02;36.51;38.23
75387;DHT22;63966;47.914;22.266;2023-07-16T07:30:06;36.55;39.92
75387;DHT22;63966;47.914;22.266;2023-07-16T07:33:10;36.68;38.25
75387;DHT22;63966;47.914;22.266;2023-07-16T07:36:14;36.99;37.50
75387;DHT22;63966;47.914;22.266;2023-07-16T07:39:17;37.63;36.51
75387;DHT22;63966;47.914;22.266;2023-07-16T07:42:21;37.27;36.81
75387;DHT22;63966;47.914;22.266;2023-07-16T07:45:27;37.03;36.55
75387;DHT22;63966;47.914;22.266;2023-07-16T07:48:31;37.56;36.43
75387;DHT22;63966;47.914;22.266;2023-07-16T07:51:34;37.40;37.48
75387;DHT22;63966;47.914;22.266;2023-07-16T07:54:42;37.67;37.17
75387;DHT22;63966;47.914;22.266;2023-07-16T07:57:45;38.09;35.85
75387;DHT22;63966;47.914;22.266;2023-07-16T08:00:49;37.88;35.96
75387;DHT22;63966;47.914;22.266;2023-07-16T08:03:52;37.90;36.02
75387;DHT22;63966;47.914;22.266;2023-07-16T08:06:56;38.02;35.43
75387;DHT22;63966;47.914;22.266;2023-07-16T08:09:59;37.70;36.01
75387;DHT22;63966;47.914;22.266;2023-07-16T08:13:03;38.27;35.17
75387;DHT22;63966;47.914;22.266;2023-07-16T08:16:09;38.29;35.19
75387;DHT22;63966;47.914;22.266;2023-07-16T08:19:31;38.09;36.87
75387;DHT22;63966;47.914;22.266;2023-07-16T08:22:35;37.73;36.03
75387;DHT22;63966;47.914;22.266;2023-07-16T08:25:42;38.21;36.41
75387;DHT22;63966;47.914;22.266;2023-07-16T08:28:46;38.80;35.75
75387;DHT22;63966;47.914;22.266;2023-07-16T08:31:50;38.14;36.84
75387;DHT22;63966;47.914;22.266;2023-07-16T08:34:53;38.36;35.20
75387;DHT22;63966;47.914;22.266;2023-07-16T08:37:57;37.66;35.72
75387;DHT22;63966;47.914;22.266;2023-07-16T08:41:01;37.88;35.21
75387;DHT22;63966;47.914;22.266;2023-07-16T08:44:05;38.38;35.50
75387;DHT22;63966;47.914;22.266;2023-07-16T08:47:08;38.62;33.70
75387;DHT22;63966;47.914;22.266;2023-07-16T08:50:12;38.49;34.80
75387;DHT22;63966;47.914;22.266;2023-07-16T08:53:16;38.21;35.09
75387;DHT22;63966;47.914;22.266;2023-07-16T08:56:24;37.02;37.63
75387;DHT22;63966;47.914;22.266;2023-07-16T08:59:28;34.91;41.96
75387;DHT22;63966;47.914;22.266;2023-07-16T09:02:31;33.82;44.62
75387;DHT22;63966;47.914;22.266;2023-07-16T09:05:35;33.30;45.74
75387;DHT22;63966;47.914;22.266;2023-07-16T09:08:43;32.83;45.35
75387;DHT22;63966;47.914;22.266;2023-07-16T09:11:51;32.58;44.39
75387;DHT22;63966;47.914;22.266;2023-07-16T09:14:55;32.68;46.96
75387;DHT22;63966;47.914;22.266;2023-07-16T09:17:58;32.65;45.62
75387;DHT22;63966;47.914;22.266;2023-07-16T09:21:02;32.32;47.58
75387;DHT22;63966;47.914;22.266;2023-07-16T09:24:10;32.41;47.51
75387;DHT22;63966;47.914;22.266;2023-07-16T09:27:14;32.51;46.62
75387;DHT22;63966;47.914;22.266;2023-07-16T09:30:19;32.37;44.80
75387;DHT22;63966;47.914;22.266;2023-07-16T09:33:23;32.68;45.34
75387;DHT22;63966;47.914;22.266;2023-07-16T09:36:29;32.57;45.91
75387;DHT22;63966;47.914;22.266;2023-07-16T09:39:33;32.59;45.94
75387;DHT22;63966;47.914;22.266;2023-07-16T09:42:42;32.76;46.98
75387;DHT22;63966;47.914;22.266;2023-07-16T09:45:46;32.80;45.51
75387;DHT22;63966;47.914;22.266;2023-07-16T09:48:49;32.80;45.32
75387;DHT22;63966;47.914;22.266;2023-07-16T09:51:59;32.80;45.60
75387;DHT22;63966;47.914;22.266;2023-07-16T09:55:05;33.05;46.67
75387;DHT22;63966;47.914;22.266;2023-07-16T09:58:10;32.94;45.94
75387;DHT22;63966;47.914;22.266;2023-07-16T10:01:16;32.98;45.20
75387;DHT22;63966;47.914;22.266;2023-07-16T10:04:20;32.90;44.56
75387;DHT22;63966;47.914;22.266;2023-07-16T10:07:25;32.74;43.81
75387;DHT22;63966;47.914;22.266;2023-07-16T10:10:48;32.78;45.20
75387;DHT22;63966;47.914;22.266;2023-07-16T10:13:52;32.83;43.38
75387;DHT22;63966;47.914;22.266;2023-07-16T10:17:02;32.92;45.46
75387;DHT22;63966;47.914;22.266;2023-07-16T10:20:09;32.95;44.76
75387;DHT22;63966;47.914;22.266;2023-07-16T10:23:15;32.99;44.54
75387;DHT22;63966;47.914;22.266;2023-07-16T10:26:27;33.16;45.02
75387;DHT22;63966;47.914;22.266;2023-07-16T10:29:33;33.37;39.76
75387;DHT22;63966;47.914;22.266;2023-07-16T10:32:40;33.16;42.88
75387;DHT22;63966;47.914;22.266;2023-07-16T10:35:45;33.40;43.16
75387;DHT22;63966;47.914;22.266;2023-07-16T10:38:49;33.37;42.78
75387;DHT22;63966;47.914;22.266;2023-07-16T10:41:52;33.12;41.37
75387;DHT22;63966;47.914;22.266;2023-07-16T10:45:01;33.12;40.61
75387;DHT22;63966;47.914;22.266;2023-07-16T10:48:05;33.16;43.31
75387;DHT22;63966;47.914;22.266;2023-07-16T10:51:09;33.16;45.51
75387;DHT22;63966;47.914;22.266;2023-07-16T10:54:12;33.00;43.32
75387;DHT22;63966;47.914;22.266;2023-07-16T10:57:17;32.85;41.36
75387;DHT22;63966;47.914;22.266;2023-07-16T11:00:23;32.86;41.92
75387;DHT22;63966;47.914;22.266;2023-07-16T11:03:28;32.96;40.51
75387;DHT22;63966;47.914;22.266;2023-07-16T11:06:31;32.80;40.15
75387;DHT22;63966;47.914;22.266;2023-07-16T11:09:48;32.88;42.06
75387;DHT22;63966;47.914;22.266;2023-07-16T11:12:53;32.65;42.26
75387;DHT22;63966;47.914;22.266;2023-07-16T11:16:06;32.96;45.09
75387;DHT22;63966;47.914;22.266;2023-07-16T11:19:19;33.12;39.09
75387;DHT22;63966;47.914;22.266;2023-07-16T11:22:27;33.09;40.38
75387;DHT22;63966;47.914;22.266;2023-07-16T11:25:31;32.94;40.19
75387;DHT22;63966;47.914;22.266;2023-07-16T11:28:41;32.95;43.22
75387;DHT22;63966;47.914;22.266;2023-07-16T11:31:50;33.22;43.39
75387;DHT22;63966;47.914;22.266;2023-07-16T11:34:56;33.26;44.97
75387;DHT22;63966;47.914;22.266;2023-07-16T11:37:59;33.36;44.71
75387;DHT22;63966;47.914;22.266;2023-07-16T11:41:03;33.33;38.98
75387;DHT22;63966;47.914;22.266;2023-07-16T11:44:10;33.29;40.76
75387;DHT22;63966;47.914;22.266;2023-07-16T11:47:14;33.29;41.36
75387;DHT22;63966;47.914;22.266;2023-07-16T11:50:18;33.27;41.51
75387;DHT22;63966;47.914;22.266;2023-07-16T11:53:22;33.13;40.95
75387;DHT22;63966;47.914;22.266;2023-07-16T11:56:25;33.10;42.06
75387;DHT22;63966;47.914;22.266;2023-07-16T11:59:29;32.80;41.33
75387;DHT22;63966;47.914;22.266;2023-07-16T12:02:37;32.58;40.62
75387;DHT22;63966;47.914;22.266;2023-07-16T12:05:41;32.54;41.96
75387;DHT22;63966;47.914;22.266;2023-07-16T12:08:55;32.82;43.96
75387;DHT22;63966;47.914;22.266;2023-07-16T12:12:00;32.92;42.59
75387;DHT22;63966;47.914;22.266;2023-07-16T12:15:04;32.95;42.43
75387;DHT22;63966;47.914;22.266;2023-07-16T12:18:10;32.94;42.96
75387;DHT22;63966;47.914;22.266;2023-07-16T12:21:14;32.82;40.95
75387;DHT22;63966;47.914;22.266;2023-07-16T12:24:18;32.82;41.60
75387;DHT22;63966;47.914;22.266;2023-07-16T12:27:25;32.90;41.50
75387;DHT22;63966;47.914;22.266;2023-07-16T12:30:28;32.76;41.59
75387;DHT22;63966;47.914;22.266;2023-07-16T12:33:32;32.90;40.49
75387;DHT22;63966;47.914;22.266;2023-07-16T12:36:37;32.83;42.06
75387;DHT22;63966;47.914;22.266;2023-07-16T12:39:40;32.76;40.31
75387;DHT22;63966;47.914;22.266;2023-07-16T12:42:44;32.69;41.64
75387;DHT22;63966;47.914;22.266;2023-07-16T12:45:48;32.74;41.72
75387;DHT22;63966;47.914;22.266;2023-07-16T12:48:52;32.74;42.24
75387;DHT22;63966;47.914;22.266;2023-07-16T12:51:58;32.89;43.71
75387;DHT22;63966;47.914;22.266;2023-07-16T12:55:05;32.92;41.07
75387;DHT22;63966;47.914;22.266;2023-07-16T12:58:08;32.80;40.51
75387;DHT22;63966;47.914;22.266;2023-07-16T13:01:12;32.68;40.92
75387;DHT22;63966;47.914;22.266;2023-07-16T13:04:16;32.64;40.48
75387;DHT22;63966;47.914;22.266;2023-07-16T13:07:20;32.71;40.72
75387;DHT22;63966;47.914;22.266;2023-07-16T13:10:23;32.57;40.34
75387;DHT22;63966;47.914;22.266;2023-07-16T13:13:27;32.47;40.18
75387;DHT22;63966;47.914;22.266;2023-07-16T13:16:30;32.47;40.60
75387;DHT22;63966;47.914;22.266;2023-07-16T13:19:34;32.50;41.42
75387;DHT22;63966;47.914;22.266;2023-07-16T13:22:38;32.42;41.43
75387;DHT22;63966;47.914;22.266;2023-07-16T13:25:42;32.44;45.51
75387;DHT22;63966;47.914;22.266;2023-07-16T13:28:45;32.31;42.19
75387;DHT22;63966;47.914;22.266;2023-07-16T13:31:50;32.34;44.56
75387;DHT22;63966;47.914;22.266;2023-07-16T13:34:54;32.45;42.24
75387;DHT22;63966;47.914;22.266;2023-07-16T13:37:58;32.59;42.16
75387;DHT22;63966;47.914;22.266;2023-07-16T13:41:02;32.75;41.65
75387;DHT22;63966;47.914;22.266;2023-07-16T13:44:06;32.72;42.24
75387;DHT22;63966;47.914;22.266;2023-07-16T13:47:10;32.72;39.37
75387;DHT22;63966;47.914;22.266;2023-07-16T13:50:14;32.65;41.02
75387;DHT22;63966;47.914;22.266;2023-07-16T13:53:20;32.65;41.49
75387;DHT22;63966;47.914;22.266;2023-07-16T13:56:24;32.62;41.01
75387;DHT22;63966;47.914;22.266;2023-07-16T13:59:32;32.69;39.19
75387;DHT22;63966;47.914;22.266;2023-07-16T14:02:36;32.71;39.85
75387;DHT22;63966;47.914;22.266;2023-07-16T14:05:40;32.50;37.92
75387;DHT22;63966;47.914;22.266;2023-07-16T14:08:44;32.45;40.61
75387;DHT22;63966;47.914;22.266;2023-07-16T14:11:47;32.41;41.22
75387;DHT22;63966;47.914;22.266;2023-07-16T14:14:51;32.32;41.70
75387;DHT22;63966;47.914;22.266;2023-07-16T14:17:54;32.28;42.09
75387;DHT22;63966;47.914;22.266;2023-07-16T14:20:58;32.23;43.87
75387;DHT22;63966;47.914;22.266;2023-07-16T14:24:01;32.13;40.10
75387;DHT22;63966;47.914;22.266;2023-07-16T14:27:09;32.14;40.70
75387;DHT22;63966;47.914;22.266;2023-07-16T14:30:13;32.14;39.92
75387;DHT22;63966;47.914;22.266;2023-07-16T14:33:16;32.16;40.84
75387;DHT22;63966;47.914;22.266;2023-07-16T14:36:20;32.24;40.82
75387;DHT22;63966;47.914;22.266;2023-07-16T14:39:25;32.24;41.40
75387;DHT22;63966;47.914;22.266;2023-07-16T14:42:29;32.14;40.08
75387;DHT22;63966;47.914;22.266;2023-07-16T14:45:33;32.10;40.37
75387;DHT22;63966;47.914;22.266;2023-07-16T14:48:37;32.02;39.94
75387;DHT22;63966;47.914;22.266;2023-07-16T14:51:42;32.02;39.76
75387;DHT22;63966;47.914;22.266;2023-07-16T14:54:45;32.07;41.49
75387;DHT22;63966;47.914;22.266;2023-07-16T14:57:49;32.11;40.11
75387;DHT22;63966;47.914;22.266;2023-07-16T15:00:53;32.04;41.05
75387;DHT22;63966;47.914;22.266;2023-07-16T15:03:59;31.92;41.64
75387;DHT22;63966;47.914;22.266;2023-07-16T15:07:03;31.82;41.53
75387;DHT22;63966;47.914;22.266;2023-07-16T15:10:10;31.75;40.18
75387;DHT22;63966;47.914;22.266;2023-07-16T15:13:14;31.66;41.24
75387;DHT22;63966;47.914;22.266;2023-07-16T15:16:18;31.66;40.65
75387;DHT22;63966;47.914;22.266;2023-07-16T15:19:22;31.72;40.60
75387;DHT22;63966;47.914;22.266;2023-07-16T15:22:26;31.72;40.72
75387;DHT22;63966;47.914;22.266;2023-07-16T15:25:34;31.63;41.06
75387;DHT22;63966;47.914;22.266;2023-07-16T15:28:39;31.65;41.12
75387;DHT22;63966;47.914;22.266;2023-07-16T15:31:46;31.62;42.49
75387;DHT22;63966;47.914;22.266;2023-07-16T15:34:49;31.66;40.89
75387;DHT22;63966;47.914;22.266;2023-07-16T15:37:56;31.43;40.83
75387;DHT22;63966;47.914;22.266;2023-07-16T15:41:02;31.42;42.03
75387;DHT22;63966;47.914;22.266;2023-07-16T15:44:06;31.34;41.06
75387;DHT22;63966;47.914;22.266;2023-07-16T15:47:09;31.37;41.70
75387;DHT22;63966;47.914;22.266;2023-07-16T15:50:16;31.31;43.05
75387;DHT22;63966;47.914;22.266;2023-07-16T15:53:19;31.27;43.34
75387;DHT22;63966;47.914;22.266;2023-07-16T15:56:24;31.22;42.37
75387;DHT22;63966;47.914;22.266;2023-07-16T15:59:27;31.18;45.43
75387;DHT22;63966;47.914;22.266;2023-07-16T16:02:31;31.08;43.27
75387;DHT22;63966;47.914;22.266;2023-07-16T16:05:35;31.02;42.67
75387;DHT22;63966;47.914;22.266;2023-07-16T16:08:39;30.94;43.55
75387;DHT22;63966;47.914;22.266;2023-07-16T16:11:42;30.86;44.26
75387;DHT22;63966;47.914;22.266;2023-07-16T16:14:49;30.84;43.19
75387;DHT22;63966;47.914;22.266;2023-07-16T16:17:57;30.83;44.53
75387;DHT22;63966;47.914;22.266;2023-07-16T16:21:02;30.81;42.85
75387;DHT22;63966;47.914;22.266;2023-07-16T16:24:06;30.88;44.96
75387;DHT22;63966;47.914;22.266;2023-07-16T16:27:09;30.91;44.73
75387;DHT22;63966;47.914;22.266;2023-07-16T16:30:13;30.77;44.21
75387;DHT22;63966;47.914;22.266;2023-07-16T16:33:16;30.71;47.56
75387;DHT22;63966;47.914;22.266;2023-07-16T16:36:22;30.64;43.09
75387;DHT22;63966;47.914;22.266;2023-07-16T16:39:25;30.61;47.12
75387;DHT22;63966;47.914;22.266;2023-07-16T16:42:29;30.57;48.67
75387;DHT22;63966;47.914;22.266;2023-07-16T16:45:32;30.52;48.08
75387;DHT22;63966;47.914;22.266;2023-07-16T16:48:38;30.55;48.15
75387;DHT22;63966;47.914;22.266;2023-07-16T16:51:44;30.47;48.24
75387;DHT22;63966;47.914;22.266;2023-07-16T16:54:48;30.49;47.61
75387;DHT22;63966;47.914;22.266;2023-07-16T16:57:51;30.49;47.80
75387;DHT22;63966;47.914;22.266;2023-07-16T17:00:55;30.42;48.93
75387;DHT22;63966;47.914;22.266;2023-07-16T17:04:22;30.35;50.16
75387;DHT22;63966;47.914;22.266;2023-07-16T17:07:26;30.26;51.30
75387;DHT22;63966;47.914;22.266;2023-07-16T17:10:29;30.04;51.33
75387;DHT22;63966;47.914;22.266;2023-07-16T17:13:33;30.09;50.99
75387;DHT22;63966;47.914;22.266;2023-07-16T17:16:37;29.92;52.70
75387;DHT22;63966;47.914;22.266;2023-07-16T17:19:41;29.71;53.64
75387;DHT22;63966;47.914;22.266;2023-07-16T17:22:46;29.68;53.71
75387;DHT22;63966;47.914;22.266;2023-07-16T17:25:50;29.63;54.92
75387;DHT22;63966;47.914;22.266;2023-07-16T17:28:53;29.56;54.56
75387;DHT22;63966;47.914;22.266;2023-07-16T17:31:57;29.50;55.30
75387;DHT22;63966;47.914;22.266;2023-07-16T17:35:01;29.40;55.80
75387;DHT22;63966;47.914;22.266;2023-07-16T17:38:04;29.23;55.40
75387;DHT22;63966;47.914;22.266;2023-07-16T17:41:08;29.13;55.88
75387;DHT22;63966;47.914;22.266;2023-07-16T17:44:12;29.05;56.20
75387;DHT22;63966;47.914;22.266;2023-07-16T17:47:16;28.88;56.91
75387;DHT22;63966;47.914;22.266;2023-07-16T17:50:20;28.81;57.66
75387;DHT22;63966;47.914;22.266;2023-07-16T17:53:24;28.72;58.37
75387;DHT22;63966;47.914;22.266;2023-07-16T17:56:27;28.68;58.89
75387;DHT22;63966;47.914;22.266;2023-07-16T17:59:31;28.48;59.58
75387;DHT22;63966;47.914;22.266;2023-07-16T18:02:35;28.43;59.91
75387;DHT22;63966;47.914;22.266;2023-07-16T18:05:39;28.33;60.36
75387;DHT22;63966;47.914;22.266;2023-07-16T18:08:47;28.10;61.21
75387;DHT22;63966;47.914;22.266;2023-07-16T18:11:50;28.04;61.61
75387;DHT22;63966;47.914;22.266;2023-07-16T18:14:54;28.04;61.76
75387;DHT22;63966;47.914;22.266;2023-07-16T18:18:00;27.99;61.99
75387;DHT22;63966;47.914;22.266;2023-07-16T18:21:04;27.72;63.12
75387;DHT22;63966;47.914;22.266;2023-07-16T18:24:15;27.41;63.90
75387;DHT22;63966;47.914;22.266;2023-07-16T18:27:20;27.20;64.58
75387;DHT22;63966;47.914;22.266;2023-07-16T18:30:44;27.03;64.57
75387;DHT22;63966;47.914;22.266;2023-07-16T18:33:47;26.83;65.21
75387;DHT22;63966;47.914;22.266;2023-07-16T18:36:52;26.72;65.66
75387;DHT22;63966;47.914;22.266;2023-07-16T18:39:57;26.60;66.39
75387;DHT22;63966;47.914;22.266;2023-07-16T18:43:01;26.52;66.36
75387;DHT22;63966;47.914;22.266;2023-07-16T18:46:07;26.50;66.11
75387;DHT22;63966;47.914;22.266;2023-07-16T18:49:10;26.56;65.41
75387;DHT22;63966;47.914;22.266;2023-07-16T18:52:17;26.52;66.11
75387;DHT22;63966;47.914;22.266;2023-07-16T18:55:27;26.35;66.78
75387;DHT22;63966;47.914;22.266;2023-07-16T18:58:31;26.22;67.29
75387;DHT22;63966;47.914;22.266;2023-07-16T19:01:34;26.09;67.73
75387;DHT22;63966;47.914;22.266;2023-07-16T19:04:38;25.94;70.51
75387;DHT22;63966;47.914;22.266;2023-07-16T19:07:43;25.59;71.01
75387;DHT22;63966;47.914;22.266;2023-07-16T19:10:46;25.39;72.35
75387;DHT22;63966;47.914;22.266;2023-07-16T19:13:53;25.33;72.09
75387;DHT22;63966;47.914;22.266;2023-07-16T19:16:57;25.20;72.02